sensor_id;sensor_type;location;lat;lon;timestamp;temperature;humidity
52075;DHT22;38075;53.172;5.446;2022-07-30T00:00:34;16.00;99.90
52075;DHT22;38075;53.172;5.446;2022-07-30T00:03:03;16.00;99.90
52075;DHT22;38075;53.172;5.446;2022-07-30T00:05:31;16.00;99.90
52075;DHT22;38075;53.172;5.446;2022-07-30T00:07:57;16.00;99.90
52075;DHT22;38075;53.172;5.446;2022-07-30T00:10:23;16.30;99.90
52075;DHT22;38075;53.172;5.446;2022-07-30T00:12:49;15.90;99.90
52075;DHT22;38075;53.172;5.446;2022-07-30T00:15:14;15.80;99.90
52075;DHT22;38075;53.172;5.446;2022-07-30T00:17:40;15.60;99.90
52075;DHT22;38075;53.172;5.446;2022-07-30T00:20:06;15.70;99.90
52075;DHT22;38075;53.172;5.446;2022-07-30T00:22:32;15.60;99.90
52075;DHT22;38075;53.172;5.446;2022-07-30T00:24:57;15.60;99.90
52075;DHT22;38075;53.172;5.446;2022-07-30T00:27:23;15.80;99.90
52075;DHT22;38075;53.172;5.446;2022-07-30T00:29:49;15.20;99.90
52075;DHT22;38075;53.172;5.446;2022-07-30T00:32:14;15.20;99.90
52075;DHT22;38075;53.172;5.446;2022-07-30T00:34:40;15.20;99.90
52075;DHT22;38075;53.172;5.446;2022-07-30T00:37:06;15.20;99.90
52075;DHT22;38075;53.172;5.446;2022-07-30T00:39:31;15.20;99.90
52075;DHT22;38075;53.172;5.446;2022-07-30T00:42:01;15.30;99.90
52075;DHT22;38075;53.172;5.446;2022-07-30T00:44:28;15.20;99.90
52075;DHT22;38075;53.172;5.446;2022-07-30T00:46:54;15.10;99.90
52075;DHT22;38075;53.172;5.446;2022-07-30T00:49:21;15.10;99.90
52075;DHT22;38075;53.172;5.446;2022-07-30T00:51:47;15.10;99.90
52075;DHT22;38075;53.172;5.446;2022-07-30T00:54:13;15.10;99.90
52075;DHT22;38075;53.172;5.446;2022-07-30T00:56:39;15.40;99.90
52075;DHT22;38075;53.172;5.446;2022-07-30T00:59:05;15.00;99.90
52075;DHT22;38075;53.172;5.446;2022-07-30T01:01:31;15.00;99.90
52075;DHT22;38075;53.172;5.446;2022-07-30T01:03:57;15.00;99.90
52075;DHT22;38075;53.172;5.446;2022-07-30T01:06:23;15.30;99.90
52075;DHT22;38075;53.172;5.446;2022-07-30T01:08:49;14.90;99.90
52075;DHT22;38075;53.172;5.446;2022-07-30T01:11:15;14.90;99.90
52075;DHT22;38075;53.172;5.446;2022-07-30T01:13:42;14.80;99.90
52075;DHT22;38075;53.172;5.446;2022-07-30T01:16:08;14.90;99.90
52075;DHT22;38075;53.172;5.446;2022-07-30T01:18:35;15.00;99.90
52075;DHT22;38075;53.172;5.446;2022-07-30T01:21:26;15.40;99.90
52075;DHT22;38075;53.172;5.446;2022-07-30T01:23:55;15.60;99.90
52075;DHT22;38075;53.172;5.446;2022-07-30T01:26:24;15.80;99.90
52075;DHT22;38075;53.172;5.446;2022-07-30T01:28:53;16.10;99.90
52075;DHT22;38075;53.172;5.446;2022-07-30T01:31:20;16.20;99.90
52075;DHT22;38075;53.172;5.446;2022-07-30T01:33:47;16.40;99.90
52075;DHT22;38075;53.172;5.446;2022-07-30T01:36:16;16.40;99.90
52075;DHT22;38075;53.172;5.446;2022-07-30T01:38:43;16.50;99.90
52075;DHT22;38075;53.172;5.446;2022-07-30T01:41:10;16.60;99.90
52075;DHT22;38075;53.172;5.446;2022-07-30T01:43:37;16.70;99.90
52075;DHT22;38075;53.172;5.446;2022-07-30T01:46:05;16.80;99.90
52075;DHT22;38075;53.172;5.446;2022-07-30T01:48:37;16.90;99.90
52075;DHT22;38075;53.172;5.446;2022-07-30T01:51:05;16.90;99.90
52075;DHT22;38075;53.172;5.446;2022-07-30T01:53:33;17.00;99.90
52075;DHT22;38075;53.172;5.446;2022-07-30T01:56:01;17.00;99.90
52075;DHT22;38075;53.172;5.446;2022-07-30T01:58:31;17.00;99.90
52075;DHT22;38075;53.172;5.446;2022-07-30T02:01:02;17.00;99.90
52075;DHT22;38075;53.172;5.446;2022-07-30T02:03:29;17.10;99.90
52075;DHT22;38075;53.172;5.446;2022-07-30T02:06:12;17.20;99.90
52075;DHT22;38075;53.172;5.446;2022-07-30T02:08:43;17.40;99.90
52075;DHT22;38075;53.172;5.446;2022-07-30T02:11:13;17.10;99.90
52075;DHT22;38075;53.172;5.446;2022-07-30T02:13:51;17.00;99.90
52075;DHT22;38075;53.172;5.446;2022-07-30T02:16:26;17.10;99.90
52075;DHT22;38075;53.172;5.446;2022-07-30T02:19:02;17.00;99.90
52075;DHT22;38075;53.172;5.446;2022-07-30T02:21:34;17.00;99.90
52075;DHT22;38075;53.172;5.446;2022-07-30T02:24:05;16.90;99.90
52075;DHT22;38075;53.172;5.446;2022-07-30T02:26:33;16.90;99.90
52075;DHT22;38075;53.172;5.446;2022-07-30T02:29:01;16.90;99.90
52075;DHT22;38075;53.172;5.446;2022-07-30T02:31:28;16.90;99.90
52075;DHT22;38075;53.172;5.446;2022-07-30T02:33:59;16.90;99.90
52075;DHT22;38075;53.172;5.446;2022-07-30T02:36:27;16.80;99.90
52075;DHT22;38075;53.172;5.446;2022-07-30T02:38:53;16.90;99.90
52075;DHT22;38075;53.172;5.446;2022-07-30T02:41:21;16.90;99.90
52075;DHT22;38075;53.172;5.446;2022-07-30T02:43:48;16.80;99.90
52075;DHT22;38075;53.172;5.446;2022-07-30T02:46:15;16.80;99.90
52075;DHT22;38075;53.172;5.446;2022-07-30T02:48:44;16.70;99.90
52075;DHT22;38075;53.172;5.446;2022-07-30T02:51:15;16.60;99.90
52075;DHT22;38075;53.172;5.446;2022-07-30T02:53:42;16.70;99.90
52075;DHT22;38075;53.172;5.446;2022-07-30T02:56:10;16.70;99.90
52075;DHT22;38075;53.172;5.446;2022-07-30T02:58:36;16.70;99.90
52075;DHT22;38075;53.172;5.446;2022-07-30T03:01:03;16.70;99.90
52075;DHT22;38075;53.172;5.446;2022-07-30T03:03:30;16.60;99.90
52075;DHT22;38075;53.172;5.446;2022-07-30T03:05:57;16.60;99.90
52075;DHT22;38075;53.172;5.446;2022-07-30T03:08:25;16.60;99.90
52075;DHT22;38075;53.172;5.446;2022-07-30T03:10:54;16.90;99.90
52075;DHT22;38075;53.172;5.446;2022-07-30T03:13:21;16.60;99.90
52075;DHT22;38075;53.172;5.446;2022-07-30T03:15:49;16.60;99.90
52075;DHT22;38075;53.172;5.446;2022-07-30T03:18:17;16.60;99.90
52075;DHT22;38075;53.172;5.446;2022-07-30T03:20:47;16.60;99.90
52075;DHT22;38075;53.172;5.446;2022-07-30T03:23:16;16.60;99.90
52075;DHT22;38075;53.172;5.446;2022-07-30T03:25:46;16.60;99.90
52075;DHT22;38075;53.172;5.446;2022-07-30T03:28:13;16.60;99.90
52075;DHT22;38075;53.172;5.446;2022-07-30T03:30:39;16.60;99.90
52075;DHT22;38075;53.172;5.446;2022-07-30T03:33:05;16.60;99.90
52075;DHT22;38075;53.172;5.446;2022-07-30T03:35:32;16.70;99.90
52075;DHT22;38075;53.172;5.446;2022-07-30T03:37:58;16.80;99.90
52075;DHT22;38075;53.172;5.446;2022-07-30T03:40:24;16.50;99.90
52075;DHT22;38075;53.172;5.446;2022-07-30T03:42:50;16.50;99.90
52075;DHT22;38075;53.172;5.446;2022-07-30T03:45:17;16.50;99.90
52075;DHT22;38075;53.172;5.446;2022-07-30T03:47:45;16.50;99.90
52075;DHT22;38075;53.172;5.446;2022-07-30T03:50:12;16.40;99.90
52075;DHT22;38075;53.172;5.446;2022-07-30T03:52:39;16.50;99.90
52075;DHT22;38075;53.172;5.446;2022-07-30T03:55:07;16.40;99.90
52075;DHT22;38075;53.172;5.446;2022-07-30T03:57:33;16.40;99.90
52075;DHT22;38075;53.172;5.446;2022-07-30T03:59:59;16.40;99.90
52075;DHT22;38075;53.172;5.446;2022-07-30T04:02:25;16.40;99.90
52075;DHT22;38075;53.172;5.446;2022-07-30T04:04:51;16.40;99.90
52075;DHT22;38075;53.172;5.446;2022-07-30T04:07:16;16.30;99.90
52075;DHT22;38075;53.172;5.446;2022-07-30T04:09:42;16.30;99.90
52075;DHT22;38075;53.172;5.446;2022-07-30T04:12:08;16.40;99.90
52075;DHT22;38075;53.172;5.446;2022-07-30T04:14:41;16.30;99.90
52075;DHT22;38075;53.172;5.446;2022-07-30T04:17:39;16.40;99.90
52075;DHT22;38075;53.172;5.446;2022-07-30T04:20:28;16.50;99.90
52075;DHT22;38075;53.172;5.446;2022-07-30T04:22:52;16.30;99.90
52075;DHT22;38075;53.172;5.446;2022-07-30T04:25:19;16.40;99.90
52075;DHT22;38075;53.172;5.446;2022-07-30T04:27:45;16.40;99.90
52075;DHT22;38075;53.172;5.446;2022-07-30T04:30:11;16.90;99.90
52075;DHT22;38075;53.172;5.446;2022-07-30T04:32:37;16.50;99.90
52075;DHT22;38075;53.172;5.446;2022-07-30T04:35:03;16.50;99.90
52075;DHT22;38075;53.172;5.446;2022-07-30T04:37:29;16.50;99.90
52075;DHT22;38075;53.172;5.446;2022-07-30T04:39:57;16.50;99.90
52075;DHT22;38075;53.172;5.446;2022-07-30T04:42:24;16.50;99.90
52075;DHT22;38075;53.172;5.446;2022-07-30T04:44:51;16.60;99.90
52075;DHT22;38075;53.172;5.446;2022-07-30T04:47:17;16.70;99.90
52075;DHT22;38075;53.172;5.446;2022-07-30T04:49:44;16.60;99.90
52075;DHT22;38075;53.172;5.446;2022-07-30T04:52:11;16.80;99.90
52075;DHT22;38075;53.172;5.446;2022-07-30T04:54:48;16.80;99.90
52075;DHT22;38075;53.172;5.446;2022-07-30T04:57:16;16.90;99.90
52075;DHT22;38075;53.172;5.446;2022-07-30T04:59:42;16.90;99.90
52075;DHT22;38075;53.172;5.446;2022-07-30T05:02:09;17.00;99.90
52075;DHT22;38075;53.172;5.446;2022-07-30T05:04:37;17.20;99.90
52075;DHT22;38075;53.172;5.446;2022-07-30T05:07:04;17.10;99.90
52075;DHT22;38075;53.172;5.446;2022-07-30T05:09:33;17.10;99.90
52075;DHT22;38075;53.172;5.446;2022-07-30T05:11:59;17.10;99.90
52075;DHT22;38075;53.172;5.446;2022-07-30T05:14:26;17.20;99.90
52075;DHT22;38075;53.172;5.446;2022-07-30T05:16:52;17.20;99.90
52075;DHT22;38075;53.172;5.446;2022-07-30T05:19:20;17.20;99.90
52075;DHT22;38075;53.172;5.446;2022-07-30T05:21:45;17.70;99.90
52075;DHT22;38075;53.172;5.446;2022-07-30T05:24:11;17.30;99.90
52075;DHT22;38075;53.172;5.446;2022-07-30T05:26:37;17.70;99.90
52075;DHT22;38075;53.172;5.446;2022-07-30T05:29:03;17.30;99.90
52075;DHT22;38075;53.172;5.446;2022-07-30T05:31:28;17.40;99.90
52075;DHT22;38075;53.172;5.446;2022-07-30T05:33:54;17.60;99.90
52075;DHT22;38075;53.172;5.446;2022-07-30T05:36:20;18.20;99.90
52075;DHT22;38075;53.172;5.446;2022-07-30T05:38:46;18.90;99.90
52075;DHT22;38075;53.172;5.446;2022-07-30T05:41:12;19.40;99.90
52075;DHT22;38075;53.172;5.446;2022-07-30T05:43:38;20.00;99.90
52075;DHT22;38075;53.172;5.446;2022-07-30T05:46:03;20.30;99.90
52075;DHT22;38075;53.172;5.446;2022-07-30T05:48:29;20.70;99.90
52075;DHT22;38075;53.172;5.446;2022-07-30T05:50:56;20.80;99.90
52075;DHT22;38075;53.172;5.446;2022-07-30T05:53:22;21.00;99.90
52075;DHT22;38075;53.172;5.446;2022-07-30T05:55:48;21.10;99.90
52075;DHT22;38075;53.172;5.446;2022-07-30T05:58:13;20.80;99.90
52075;DHT22;38075;53.172;5.446;2022-07-30T06:00:39;20.80;99.90
52075;DHT22;38075;53.172;5.446;2022-07-30T06:03:05;20.60;99.90
52075;DHT22;38075;53.172;5.446;2022-07-30T06:05:31;20.80;99.90
52075;DHT22;38075;53.172;5.446;2022-07-30T06:07:57;21.30;98.40
52075;DHT22;38075;53.172;5.446;2022-07-30T06:10:22;21.30;95.00
52075;DHT22;38075;53.172;5.446;2022-07-30T06:12:48;20.80;92.80
52075;DHT22;38075;53.172;5.446;2022-07-30T06:15:14;20.80;91.10
52075;DHT22;38075;53.172;5.446;2022-07-30T06:17:44;21.30;85.80
52075;DHT22;38075;53.172;5.446;2022-07-30T06:20:11;21.20;79.20
52075;DHT22;38075;53.172;5.446;2022-07-30T06:22:37;21.10;80.90
52075;DHT22;38075;53.172;5.446;2022-07-30T06:25:03;20.80;74.40
52075;DHT22;38075;53.172;5.446;2022-07-30T06:27:29;20.40;73.90
52075;DHT22;38075;53.172;5.446;2022-07-30T06:29:55;20.30;70.90
52075;DHT22;38075;53.172;5.446;2022-07-30T06:32:20;20.20;70.60
52075;DHT22;38075;53.172;5.446;2022-07-30T06:34:46;19.90;66.90
52075;DHT22;38075;53.172;5.446;2022-07-30T06:37:11;19.60;65.40
52075;DHT22;38075;53.172;5.446;2022-07-30T06:39:37;19.40;64.80
52075;DHT22;38075;53.172;5.446;2022-07-30T06:42:03;19.90;67.20
52075;DHT22;38075;53.172;5.446;2022-07-30T06:44:28;20.30;65.90
52075;DHT22;38075;53.172;5.446;2022-07-30T06:46:55;20.70;62.50
52075;DHT22;38075;53.172;5.446;2022-07-30T06:49:21;20.60;58.10
52075;DHT22;38075;53.172;5.446;2022-07-30T06:51:47;20.40;55.30
52075;DHT22;38075;53.172;5.446;2022-07-30T06:54:13;20.40;54.40
52075;DHT22;38075;53.172;5.446;2022-07-30T06:56:38;20.40;52.50
52075;DHT22;38075;53.172;5.446;2022-07-30T06:59:04;20.40;53.80
52075;DHT22;38075;53.172;5.446;2022-07-30T07:01:29;20.30;52.50
52075;DHT22;38075;53.172;5.446;2022-07-30T07:03:56;19.90;50.60
52075;DHT22;38075;53.172;5.446;2022-07-30T07:06:21;19.70;50.00
52075;DHT22;38075;53.172;5.446;2022-07-30T07:08:47;19.70;49.60
52075;DHT22;38075;53.172;5.446;2022-07-30T07:11:12;19.90;50.10
52075;DHT22;38075;53.172;5.446;2022-07-30T07:13:38;20.10;48.40
52075;DHT22;38075;53.172;5.446;2022-07-30T07:16:04;20.10;47.20
52075;DHT22;38075;53.172;5.446;2022-07-30T07:18:30;20.20;45.80
52075;DHT22;38075;53.172;5.446;2022-07-30T07:20:58;20.20;43.40
52075;DHT22;38075;53.172;5.446;2022-07-30T07:23:23;20.30;41.40
52075;DHT22;38075;53.172;5.446;2022-07-30T07:25:49;20.30;39.90
52075;DHT22;38075;53.172;5.446;2022-07-30T07:28:14;20.60;39.60
52075;DHT22;38075;53.172;5.446;2022-07-30T07:30:41;21.00;39.30
52075;DHT22;38075;53.172;5.446;2022-07-30T07:33:07;21.00;39.10
52075;DHT22;38075;53.172;5.446;2022-07-30T07:35:33;21.20;40.20
52075;DHT22;38075;53.172;5.446;2022-07-30T07:37:59;21.10;40.40
52075;DHT22;38075;53.172;5.446;2022-07-30T07:40:25;21.00;39.60
52075;DHT22;38075;53.172;5.446;2022-07-30T07:42:50;21.20;37.90
52075;DHT22;38075;53.172;5.446;2022-07-30T07:45:16;21.10;35.60
52075;DHT22;38075;53.172;5.446;2022-07-30T07:47:46;21.30;34.10
52075;DHT22;38075;53.172;5.446;2022-07-30T07:50:14;21.10;32.60
52075;DHT22;38075;53.172;5.446;2022-07-30T07:52:40;21.00;31.90
52075;DHT22;38075;53.172;5.446;2022-07-30T07:55:06;20.90;32.10
52075;DHT22;38075;53.172;5.446;2022-07-30T07:57:43;20.70;32.30
52075;DHT22;38075;53.172;5.446;2022-07-30T08:00:11;20.60;32.20
52075;DHT22;38075;53.172;5.446;2022-07-30T08:02:37;20.60;34.80
52075;DHT22;38075;53.172;5.446;2022-07-30T08:05:04;20.60;35.50
52075;DHT22;38075;53.172;5.446;2022-07-30T08:07:33;20.60;36.50
52075;DHT22;38075;53.172;5.446;2022-07-30T08:09:59;20.60;37.90
52075;DHT22;38075;53.172;5.446;2022-07-30T08:12:25;20.50;37.80
52075;DHT22;38075;53.172;5.446;2022-07-30T08:14:51;20.60;37.90
52075;DHT22;38075;53.172;5.446;2022-07-30T08:17:17;20.70;37.40
52075;DHT22;38075;53.172;5.446;2022-07-30T08:19:44;20.80;36.00
52075;DHT22;38075;53.172;5.446;2022-07-30T08:22:10;21.00;36.20
52075;DHT22;38075;53.172;5.446;2022-07-30T08:24:35;21.30;36.20
52075;DHT22;38075;53.172;5.446;2022-07-30T08:27:01;21.10;35.90
52075;DHT22;38075;53.172;5.446;2022-07-30T08:29:27;21.30;34.70
52075;DHT22;38075;53.172;5.446;2022-07-30T08:31:55;21.30;33.40
52075;DHT22;38075;53.172;5.446;2022-07-30T08:34:21;21.20;32.40
52075;DHT22;38075;53.172;5.446;2022-07-30T08:36:47;21.40;32.20
52075;DHT22;38075;53.172;5.446;2022-07-30T08:39:12;21.30;31.20
52075;DHT22;38075;53.172;5.446;2022-07-30T08:41:40;21.40;30.40
52075;DHT22;38075;53.172;5.446;2022-07-30T08:44:09;21.40;29.90
52075;DHT22;38075;53.172;5.446;2022-07-30T08:46:39;21.70;30.00
52075;DHT22;38075;53.172;5.446;2022-07-30T08:49:07;21.70;28.20
52075;DHT22;38075;53.172;5.446;2022-07-30T08:51:34;21.60;28.50
52075;DHT22;38075;53.172;5.446;2022-07-30T08:54:00;21.50;27.90
52075;DHT22;38075;53.172;5.446;2022-07-30T08:56:28;21.20;27.60
52075;DHT22;38075;53.172;5.446;2022-07-30T08:58:54;21.20;27.90
52075;DHT22;38075;53.172;5.446;2022-07-30T09:01:21;21.30;27.70
52075;DHT22;38075;53.172;5.446;2022-07-30T09:03:46;21.30;26.90
52075;DHT22;38075;53.172;5.446;2022-07-30T09:06:12;21.50;27.20
52075;DHT22;38075;53.172;5.446;2022-07-30T09:08:38;21.50;27.20
52075;DHT22;38075;53.172;5.446;2022-07-30T09:11:03;21.40;26.70
52075;DHT22;38075;53.172;5.446;2022-07-30T09:13:32;21.80;26.80
52075;DHT22;38075;53.172;5.446;2022-07-30T09:15:59;21.50;26.20
52075;DHT22;38075;53.172;5.446;2022-07-30T09:21:19;21.20;25.90
52075;DHT22;38075;53.172;5.446;2022-07-30T09:24:06;21.20;26.30
52075;DHT22;38075;53.172;5.446;2022-07-30T09:29:23;21.30;25.30
52075;DHT22;38075;53.172;5.446;2022-07-30T09:32:06;21.30;25.00
52075;DHT22;38075;53.172;5.446;2022-07-30T09:34:33;21.40;24.70
52075;DHT22;38075;53.172;5.446;2022-07-30T09:37:19;21.30;24.60
52075;DHT22;38075;53.172;5.446;2022-07-30T09:39:44;21.50;24.70
52075;DHT22;38075;53.172;5.446;2022-07-30T09:42:19;21.40;24.30
52075;DHT22;38075;53.172;5.446;2022-07-30T09:44:45;21.60;24.00
52075;DHT22;38075;53.172;5.446;2022-07-30T09:47:33;21.60;24.30
52075;DHT22;38075;53.172;5.446;2022-07-30T09:50:10;21.60;23.40
52075;DHT22;38075;53.172;5.446;2022-07-30T09:52:38;21.50;23.60
52075;DHT22;38075;53.172;5.446;2022-07-30T09:55:05;21.60;24.20
52075;DHT22;38075;53.172;5.446;2022-07-30T09:57:31;21.70;23.90
52075;DHT22;38075;53.172;5.446;2022-07-30T10:00:18;21.80;23.70
52075;DHT22;38075;53.172;5.446;2022-07-30T10:02:44;21.70;22.30
52075;DHT22;38075;53.172;5.446;2022-07-30T10:05:14;21.60;22.70
52075;DHT22;38075;53.172;5.446;2022-07-30T10:10:12;21.60;21.90
52075;DHT22;38075;53.172;5.446;2022-07-30T10:12:38;21.60;22.20
52075;DHT22;38075;53.172;5.446;2022-07-30T10:15:05;21.80;22.30
52075;DHT22;38075;53.172;5.446;2022-07-30T10:17:31;21.90;22.40
52075;DHT22;38075;53.172;5.446;2022-07-30T10:20:06;21.90;22.50
52075;DHT22;38075;53.172;5.446;2022-07-30T10:22:33;21.90;22.70
52075;DHT22;38075;53.172;5.446;2022-07-30T10:25:01;22.00;22.50
52075;DHT22;38075;53.172;5.446;2022-07-30T10:27:27;21.90;22.10
52075;DHT22;38075;53.172;5.446;2022-07-30T10:29:53;21.90;22.20
52075;DHT22;38075;53.172;5.446;2022-07-30T10:32:19;21.90;21.90
52075;DHT22;38075;53.172;5.446;2022-07-30T10:34:46;22.00;22.10
52075;DHT22;38075;53.172;5.446;2022-07-30T10:37:12;22.00;21.80
52075;DHT22;38075;53.172;5.446;2022-07-30T10:39:56;22.00;21.70
52075;DHT22;38075;53.172;5.446;2022-07-30T10:45:27;22.00;21.70
52075;DHT22;38075;53.172;5.446;2022-07-30T10:48:01;21.90;21.90
52075;DHT22;38075;53.172;5.446;2022-07-30T10:50:28;22.20;22.20
52075;DHT22;38075;53.172;5.446;2022-07-30T10:52:58;22.00;21.70
52075;DHT22;38075;53.172;5.446;2022-07-30T10:55:27;21.90;21.70
52075;DHT22;38075;53.172;5.446;2022-07-30T11:00:30;22.20;21.90
52075;DHT22;38075;53.172;5.446;2022-07-30T11:05:41;22.30;20.50
52075;DHT22;38075;53.172;5.446;2022-07-30T11:08:33;22.40;20.90
52075;DHT22;38075;53.172;5.446;2022-07-30T11:10:59;22.40;20.60
52075;DHT22;38075;53.172;5.446;2022-07-30T11:13:57;22.40;20.70
52075;DHT22;38075;53.172;5.446;2022-07-30T11:19:11;22.90;21.20
52075;DHT22;38075;53.172;5.446;2022-07-30T11:21:41;23.10;20.40
52075;DHT22;38075;53.172;5.446;2022-07-30T11:27:45;22.40;19.40
52075;DHT22;38075;53.172;5.446;2022-07-30T11:35:42;22.70;20.00
52075;DHT22;38075;53.172;5.446;2022-07-30T11:38:12;22.50;19.10
52075;DHT22;38075;53.172;5.446;2022-07-30T11:48:35;22.20;19.00
52075;DHT22;38075;53.172;5.446;2022-07-30T11:51:05;22.40;19.80
52075;DHT22;38075;53.172;5.446;2022-07-30T11:53:34;22.30;19.30
52075;DHT22;38075;53.172;5.446;2022-07-30T11:56:01;22.20;19.60
52075;DHT22;38075;53.172;5.446;2022-07-30T11:58:33;22.20;19.50
52075;DHT22;38075;53.172;5.446;2022-07-30T12:01:05;22.50;19.20
52075;DHT22;38075;53.172;5.446;2022-07-30T12:03:31;22.60;19.70
52075;DHT22;38075;53.172;5.446;2022-07-30T12:06:05;22.40;19.20
52075;DHT22;38075;53.172;5.446;2022-07-30T12:08:45;22.50;19.50
52075;DHT22;38075;53.172;5.446;2022-07-30T12:11:11;22.70;19.20
52075;DHT22;38075;53.172;5.446;2022-07-30T12:13:38;22.80;19.20
52075;DHT22;38075;53.172;5.446;2022-07-30T12:16:07;22.90;19.30
52075;DHT22;38075;53.172;5.446;2022-07-30T12:18:33;22.80;19.10
52075;DHT22;38075;53.172;5.446;2022-07-30T12:21:02;22.70;19.10
52075;DHT22;38075;53.172;5.446;2022-07-30T12:23:28;22.70;21.60
52075;DHT22;38075;53.172;5.446;2022-07-30T12:25:55;22.80;19.20
52075;DHT22;38075;53.172;5.446;2022-07-30T12:28:26;23.00;19.40
52075;DHT22;38075;53.172;5.446;2022-07-30T12:30:53;23.10;19.30
52075;DHT22;38075;53.172;5.446;2022-07-30T12:33:19;22.90;19.00
52075;DHT22;38075;53.172;5.446;2022-07-30T12:35:51;22.60;18.60
52075;DHT22;38075;53.172;5.446;2022-07-30T12:38:18;22.70;18.60
52075;DHT22;38075;53.172;5.446;2022-07-30T12:40:59;22.70;19.10
52075;DHT22;38075;53.172;5.446;2022-07-30T12:43:48;22.70;18.70
52075;DHT22;38075;53.172;5.446;2022-07-30T12:51:14;22.50;18.90
52075;DHT22;38075;53.172;5.446;2022-07-30T12:53:39;22.30;18.90
52075;DHT22;38075;53.172;5.446;2022-07-30T12:56:13;21.90;18.80
52075;DHT22;38075;53.172;5.446;2022-07-30T12:58:40;22.10;18.90
52075;DHT22;38075;53.172;5.446;2022-07-30T13:01:06;22.00;18.90
52075;DHT22;38075;53.172;5.446;2022-07-30T13:03:32;22.10;18.90
52075;DHT22;38075;53.172;5.446;2022-07-30T13:06:12;22.20;19.10
52075;DHT22;38075;53.172;5.446;2022-07-30T13:08:53;22.10;18.90
52075;DHT22;38075;53.172;5.446;2022-07-30T13:11:21;22.10;19.20
52075;DHT22;38075;53.172;5.446;2022-07-30T13:13:50;22.00;19.30
52075;DHT22;38075;53.172;5.446;2022-07-30T13:16:16;22.00;19.10
52075;DHT22;38075;53.172;5.446;2022-07-30T13:18:43;22.00;19.20
52075;DHT22;38075;53.172;5.446;2022-07-30T13:21:09;22.10;19.10
52075;DHT22;38075;53.172;5.446;2022-07-30T13:23:39;22.00;16.90
52075;DHT22;38075;53.172;5.446;2022-07-30T13:26:07;21.90;19.30
52075;DHT22;38075;53.172;5.446;2022-07-30T13:28:33;22.00;19.60
52075;DHT22;38075;53.172;5.446;2022-07-30T13:31:00;21.90;19.30
52075;DHT22;38075;53.172;5.446;2022-07-30T13:33:26;22.00;19.70
52075;DHT22;38075;53.172;5.446;2022-07-30T13:35:52;22.00;19.90
52075;DHT22;38075;53.172;5.446;2022-07-30T13:38:17;22.10;19.30
52075;DHT22;38075;53.172;5.446;2022-07-30T13:40:44;22.10;19.30
52075;DHT22;38075;53.172;5.446;2022-07-30T13:43:10;22.10;20.00
52075;DHT22;38075;53.172;5.446;2022-07-30T13:45:35;22.20;19.90
52075;DHT22;38075;53.172;5.446;2022-07-30T13:48:01;22.20;19.80
52075;DHT22;38075;53.172;5.446;2022-07-30T13:50:28;22.10;20.00
52075;DHT22;38075;53.172;5.446;2022-07-30T13:52:56;22.10;19.70
52075;DHT22;38075;53.172;5.446;2022-07-30T13:55:25;22.30;20.30
52075;DHT22;38075;53.172;5.446;2022-07-30T13:57:51;22.50;20.50
52075;DHT22;38075;53.172;5.446;2022-07-30T14:00:16;22.50;20.00
52075;DHT22;38075;53.172;5.446;2022-07-30T14:02:42;22.70;19.60
52075;DHT22;38075;53.172;5.446;2022-07-30T14:05:08;22.80;19.20
52075;DHT22;38075;53.172;5.446;2022-07-30T14:07:34;22.90;22.10
52075;DHT22;38075;53.172;5.446;2022-07-30T14:10:01;23.10;19.30
52075;DHT22;38075;53.172;5.446;2022-07-30T14:12:26;23.10;19.30
52075;DHT22;38075;53.172;5.446;2022-07-30T14:14:52;22.80;19.10
52075;DHT22;38075;53.172;5.446;2022-07-30T14:17:18;22.80;19.20
52075;DHT22;38075;53.172;5.446;2022-07-30T14:19:43;22.70;18.70
52075;DHT22;38075;53.172;5.446;2022-07-30T14:22:09;22.80;18.90
52075;DHT22;38075;53.172;5.446;2022-07-30T14:24:35;22.80;19.20
52075;DHT22;38075;53.172;5.446;2022-07-30T14:27:03;22.80;19.30
52075;DHT22;38075;53.172;5.446;2022-07-30T14:29:29;22.90;19.40
52075;DHT22;38075;53.172;5.446;2022-07-30T14:31:55;22.80;19.20
52075;DHT22;38075;53.172;5.446;2022-07-30T14:34:21;23.00;19.30
52075;DHT22;38075;53.172;5.446;2022-07-30T14:36:46;22.90;19.30
52075;DHT22;38075;53.172;5.446;2022-07-30T14:39:12;22.90;19.60
52075;DHT22;38075;53.172;5.446;2022-07-30T14:41:39;22.90;19.30
52075;DHT22;38075;53.172;5.446;2022-07-30T14:44:05;22.80;19.30
52075;DHT22;38075;53.172;5.446;2022-07-30T14:46:30;22.70;19.10
52075;DHT22;38075;53.172;5.446;2022-07-30T14:48:56;22.60;19.10
52075;DHT22;38075;53.172;5.446;2022-07-30T14:51:22;22.50;19.10
52075;DHT22;38075;53.172;5.446;2022-07-30T14:53:48;22.60;19.10
52075;DHT22;38075;53.172;5.446;2022-07-30T14:56:15;22.50;19.00
52075;DHT22;38075;53.172;5.446;2022-07-30T14:58:41;22.80;19.10
52075;DHT22;38075;53.172;5.446;2022-07-30T15:01:07;22.80;19.30
52075;DHT22;38075;53.172;5.446;2022-07-30T15:03:33;22.80;19.10
52075;DHT22;38075;53.172;5.446;2022-07-30T15:05:59;22.90;19.30
52075;DHT22;38075;53.172;5.446;2022-07-30T15:08:28;22.70;19.10
52075;DHT22;38075;53.172;5.446;2022-07-30T15:10:54;22.60;18.90
52075;DHT22;38075;53.172;5.446;2022-07-30T15:13:22;22.50;19.00
52075;DHT22;38075;53.172;5.446;2022-07-30T15:15:48;22.40;18.80
52075;DHT22;38075;53.172;5.446;2022-07-30T15:18:14;22.40;19.00
52075;DHT22;38075;53.172;5.446;2022-07-30T15:20:40;22.40;18.90
52075;DHT22;38075;53.172;5.446;2022-07-30T15:23:05;22.40;18.80
52075;DHT22;38075;53.172;5.446;2022-07-30T15:25:31;22.40;18.50
52075;DHT22;38075;53.172;5.446;2022-07-30T15:27:57;22.30;18.40
52075;DHT22;38075;53.172;5.446;2022-07-30T15:30:25;22.40;18.90
52075;DHT22;38075;53.172;5.446;2022-07-30T15:32:51;22.40;18.50
52075;DHT22;38075;53.172;5.446;2022-07-30T15:35:19;22.40;18.50
52075;DHT22;38075;53.172;5.446;2022-07-30T15:37:44;22.30;18.80
52075;DHT22;38075;53.172;5.446;2022-07-30T15:40:10;22.20;18.70
52075;DHT22;38075;53.172;5.446;2022-07-30T15:42:36;22.00;18.80
52075;DHT22;38075;53.172;5.446;2022-07-30T15:45:05;21.90;18.90
52075;DHT22;38075;53.172;5.446;2022-07-30T15:47:31;21.80;18.70
52075;DHT22;38075;53.172;5.446;2022-07-30T15:49:57;21.80;18.90
52075;DHT22;38075;53.172;5.446;2022-07-30T15:52:22;21.80;18.60
52075;DHT22;38075;53.172;5.446;2022-07-30T15:54:48;21.80;21.70
52075;DHT22;38075;53.172;5.446;2022-07-30T15:57:14;21.90;18.80
52075;DHT22;38075;53.172;5.446;2022-07-30T15:59:40;21.80;18.80
52075;DHT22;38075;53.172;5.446;2022-07-30T16:02:05;21.80;18.90
52075;DHT22;38075;53.172;5.446;2022-07-30T16:04:31;21.80;19.30
52075;DHT22;38075;53.172;5.446;2022-07-30T16:06:58;21.70;19.50
52075;DHT22;38075;53.172;5.446;2022-07-30T16:09:24;21.70;19.50
52075;DHT22;38075;53.172;5.446;2022-07-30T16:11:50;21.70;19.80
52075;DHT22;38075;53.172;5.446;2022-07-30T16:14:15;21.70;20.00